Time;durP1;ratioP1;P1;durP2;ratioP2;P2;SDS_P1;SDS_P2;PMS_P1;PMS_P2;Temp;Humidity;BMP_temperature;BMP_pressure;BME280_temperature;BME280_humidity;BME280_pressure;Samples;Min_cycle;Max_cycle;Signal;HPM_P1;HPM_P2
2023/05/09 00:00:29;;;;;;;3.40;3.40;;;;;;;;;;5066202;28;20445;-68
2023/05/09 00:02:55;;;;;;;3.67;3.47;;;;;;;;;;5067081;28;20536;-67
2023/05/09 00:05:21;;;;;;;3.73;3.63;;;;;;;;;;5069770;28;20453;-67
2023/05/09 00:07:47;;;;;;;4.47;4.30;;;;;;;;;;5066723;28;20441;-66
2023/05/09 00:10:13;;;;;;;4.33;4.17;;;;;;;;;;5066037;28;20583;-68
2023/05/09 00:12:42;;;;;;;3.27;3.13;;;;;;;;;;5069210;28;20432;-67
2023/05/09 00:15:08;;;;;;;3.13;3.13;;;;;;;;;;5069724;28;20560;-72
2023/05/09 00:17:35;;;;;;;2.97;2.90;;;;;;;;;;5067043;28;20441;-68
2023/05/09 00:20:06;;;;;;;2.50;2.50;;;;;;;;;;5067247;28;20983;-66
2023/05/09 00:22:32;;;;;;;2.97;2.73;;;;;;;;;;5069223;28;20532;-71
2023/05/09 00:24:59;;;;;;;2.00;1.97;;;;;;;;;;5069402;28;20977;-71
2023/05/09 00:27:25;;;;;;;9.60;2.00;;;;;;;;;;5069811;28;20412;-66
2023/05/09 00:29:51;;;;;;;2.00;2.00;;;;;;;;;;5067807;28;20801;-67
2023/05/09 00:32:17;;;;;;;1.60;1.50;;;;;;;;;;5065150;28;20452;-67
2023/05/09 00:34:43;;;;;;;4.10;1.30;;;;;;;;;;5067135;28;20554;-66
2023/05/09 00:37:09;;;;;;;1.57;1.57;;;;;;;;;;5069661;28;21477;-67
2023/05/09 00:39:35;;;;;;;2.10;1.97;;;;;;;;;;5068055;28;20442;-68
2023/05/09 00:42:02;;;;;;;2.60;1.57;;;;;;;;;;5071668;28;20559;-67
2023/05/09 00:44:28;;;;;;;4.43;1.80;;;;;;;;;;5072211;28;20433;-70
2023/05/09 00:46:54;;;;;;;1.83;1.83;;;;;;;;;;5069570;28;20571;-71
2023/05/09 00:49:20;;;;;;;3.40;2.50;;;;;;;;;;5073205;28;20924;-70
2023/05/09 00:51:47;;;;;;;2.40;1.83;;;;;;;;;;5065732;28;20437;-70
2023/05/09 00:54:13;;;;;;;4.30;2.43;;;;;;;;;;5070532;28;20554;-67
2023/05/09 00:56:39;;;;;;;2.17;1.97;;;;;;;;;;5071718;28;20477;-67
2023/05/09 00:59:05;;;;;;;1.80;1.70;;;;;;;;;;5069379;28;20437;-67
2023/05/09 01:01:31;;;;;;;1.57;1.57;;;;;;;;;;5069740;28;20429;-66
2023/05/09 01:03:57;;;;;;;2.87;1.80;;;;;;;;;;5072854;28;20413;-69
2023/05/09 01:06:36;;;;;;;1.57;1.57;;;;;;;;;;5068354;28;20437;-69
2023/05/09 01:09:07;;;;;;;1.73;1.63;;;;;;;;;;5069812;28;20444;-72
2023/05/09 01:11:36;;;;;;;10.50;1.97;;;;;;;;;;5072492;28;20421;-67
2023/05/09 01:14:15;;;;;;;1.47;1.47;;;;;;;;;;5072427;28;20780;-71
2023/05/09 01:16:44;;;;;;;1.60;1.60;;;;;;;;;;5071164;28;20449;-70
2023/05/09 01:19:10;;;;;;;2.53;1.30;;;;;;;;;;5068409;28;20457;-71
2023/05/09 01:21:40;;;;;;;1.40;1.40;;;;;;;;;;5072160;28;20875;-71
2023/05/09 01:24:18;;;;;;;2.67;1.40;;;;;;;;;;5072418;28;20439;-66
2023/05/09 01:26:54;;;;;;;2.13;1.50;;;;;;;;;;5069739;28;20445;-67
2023/05/09 01:29:34;;;;;;;1.53;1.43;;;;;;;;;;5072539;28;20416;-67
2023/05/09 01:32:02;;;;;;;1.33;1.33;;;;;;;;;;5071851;28;20488;-68
2023/05/09 01:34:28;;;;;;;8.03;1.90;;;;;;;;;;5069246;28;20492;-71
2023/05/09 01:36:55;;;;;;;1.30;1.30;;;;;;;;;;5069998;28;20448;-71
2023/05/09 01:39:23;;;;;;;1.80;1.80;;;;;;;;;;5072400;28;20516;-69
2023/05/09 01:41:50;;;;;;;1.07;1.07;;;;;;;;;;5070107;28;20441;-66
2023/05/09 01:44:17;;;;;;;1.67;1.57;;;;;;;;;;5072158;28;20550;-68
2023/05/09 01:46:43;;;;;;;2.63;1.47;;;;;;;;;;5069412;28;20476;-68
2023/05/09 01:49:10;;;;;;;1.97;1.83;;;;;;;;;;5068468;28;20429;-68
2023/05/09 01:51:37;;;;;;;1.67;1.67;;;;;;;;;;5071650;28;20479;-72
2023/05/09 01:54:03;;;;;;;2.40;1.30;;;;;;;;;;5071847;28;20469;-68
2023/05/09 01:56:30;;;;;;;1.20;1.20;;;;;;;;;;5072176;28;20459;-68
2023/05/09 01:58:57;;;;;;;2.03;1.77;;;;;;;;;;5070496;28;20452;-71
2023/05/09 02:01:23;;;;;;;1.60;1.50;;;;;;;;;;5071455;28;20429;-66
2023/05/09 02:03:53;;;;;;;1.37;1.37;;;;;;;;;;5069330;28;20484;-67
2023/05/09 02:06:21;;;;;;;1.10;1.10;;;;;;;;;;5072016;28;20418;-66
2023/05/09 02:08:47;;;;;;;1.80;1.80;;;;;;;;;;5069559;28;20437;-66
2023/05/09 02:11:13;;;;;;;1.50;1.50;;;;;;;;;;5071871;28;20453;-69
2023/05/09 02:13:39;;;;;;;3.77;1.67;;;;;;;;;;5071223;28;20857;-68
2023/05/09 02:16:06;;;;;;;2.00;1.90;;;;;;;;;;5071356;28;20434;-66
2023/05/09 02:18:33;;;;;;;1.67;1.67;;;;;;;;;;5068416;28;20441;-71
2023/05/09 02:20:59;;;;;;;2.00;2.00;;;;;;;;;;5070547;28;20432;-67
2023/05/09 02:23:25;;;;;;;1.90;1.60;;;;;;;;;;5071235;28;20417;-67
2023/05/09 02:25:53;;;;;;;3.00;1.70;;;;;;;;;;5069254;28;20432;-66
2023/05/09 02:28:20;;;;;;;1.90;1.90;;;;;;;;;;5069579;28;20445;-66
2023/05/09 02:30:46;;;;;;;9.93;2.00;;;;;;;;;;5067269;28;20484;-67
2023/05/09 02:33:13;;;;;;;6.57;2.53;;;;;;;;;;5071006;28;20508;-68
2023/05/09 02:35:41;;;;;;;1.60;1.60;;;;;;;;;;5070397;28;20538;-68
2023/05/09 02:38:07;;;;;;;1.50;1.40;;;;;;;;;;5069389;28;20444;-68
2023/05/09 02:40:33;;;;;;;1.87;1.07;;;;;;;;;;5071358;28;20798;-67
2023/05/09 02:42:59;;;;;;;5.43;1.60;;;;;;;;;;5070744;28;20418;-68
2023/05/09 02:45:25;;;;;;;5.30;1.40;;;;;;;;;;5068846;28;20526;-68
2023/05/09 02:47:51;;;;;;;3.97;1.40;;;;;;;;;;5068630;28;20455;-67
2023/05/09 02:50:17;;;;;;;6.23;1.40;;;;;;;;;;5071064;28;20414;-68
2023/05/09 02:52:43;;;;;;;1.63;1.63;;;;;;;;;;5069617;28;20417;-69
2023/05/09 02:55:09;;;;;;;1.90;1.57;;;;;;;;;;5068927;28;20513;-66
2023/05/09 02:57:35;;;;;;;2.00;1.90;;;;;;;;;;5069828;28;20426;-68
2023/05/09 03:00:01;;;;;;;1.47;1.47;;;;;;;;;;5066682;28;20480;-69
2023/05/09 03:02:27;;;;;;;1.97;1.97;;;;;;;;;;5069713;28;20491;-71
2023/05/09 03:04:53;;;;;;;7.10;1.87;;;;;;;;;;5070546;28;20886;-66
2023/05/09 03:07:19;;;;;;;2.97;1.80;;;;;;;;;;5070867;28;20421;-70
2023/05/09 03:09:45;;;;;;;6.13;1.10;;;;;;;;;;5065604;28;20433;-67
2023/05/09 03:12:11;;;;;;;1.20;1.20;;;;;;;;;;5064433;28;20566;-67
2023/05/09 03:14:37;;;;;;;1.27;1.17;;;;;;;;;;5068891;28;20493;-67
2023/05/09 03:17:03;;;;;;;1.20;1.20;;;;;;;;;;5070247;28;20422;-67
2023/05/09 03:19:29;;;;;;;4.00;1.20;;;;;;;;;;5068431;28;20437;-66
2023/05/09 03:21:55;;;;;;;1.30;1.27;;;;;;;;;;5068835;28;20571;-69
2023/05/09 03:24:22;;;;;;;4.63;1.57;;;;;;;;;;5070187;28;20504;-66
2023/05/09 03:26:47;;;;;;;1.60;1.10;;;;;;;;;;5067350;28;20430;-71
2023/05/09 03:29:13;;;;;;;1.90;1.30;;;;;;;;;;5070610;28;20428;-69
2023/05/09 03:31:39;;;;;;;2.03;1.47;;;;;;;;;;5067623;28;20433;-70
2023/05/09 03:34:05;;;;;;;1.40;1.30;;;;;;;;;;5069848;28;20585;-71
2023/05/09 03:36:31;;;;;;;1.40;1.40;;;;;;;;;;5069346;28;20425;-71
2023/05/09 03:38:57;;;;;;;1.53;1.43;;;;;;;;;;5069960;28;20432;-71
2023/05/09 03:41:23;;;;;;;3.70;1.90;;;;;;;;;;5067010;28;20437;-71
2023/05/09 03:43:49;;;;;;;3.30;1.37;;;;;;;;;;5069828;28;20534;-71
2023/05/09 03:46:15;;;;;;;1.70;1.70;;;;;;;;;;5069671;28;20941;-70
2023/05/09 03:48:41;;;;;;;3.77;1.57;;;;;;;;;;5067935;28;20807;-70
2023/05/09 03:51:07;;;;;;;2.73;1.70;;;;;;;;;;5067928;28;20477;-71
2023/05/09 03:53:33;;;;;;;1.60;1.60;;;;;;;;;;5069401;28;20898;-70
2023/05/09 03:55:59;;;;;;;1.50;1.50;;;;;;;;;;5067720;28;20449;-71
2023/05/09 03:58:25;;;;;;;1.30;1.30;;;;;;;;;;5070062;28;20417;-69
2023/05/09 04:00:51;;;;;;;1.60;1.50;;;;;;;;;;5067900;28;20500;-67
2023/05/09 04:03:17;;;;;;;4.03;1.43;;;;;;;;;;5069297;28;20419;-70
2023/05/09 04:05:43;;;;;;;1.40;1.40;;;;;;;;;;5069820;28;20417;-70
2023/05/09 04:08:09;;;;;;;1.50;1.50;;;;;;;;;;5063296;28;20446;-71
2023/05/09 04:10:35;;;;;;;2.83;1.50;;;;;;;;;;5067887;28;20461;-69
2023/05/09 04:13:01;;;;;;;4.20;1.70;;;;;;;;;;5067129;28;20920;-70
2023/05/09 04:15:27;;;;;;;1.70;1.60;;;;;;;;;;5067595;28;20477;-68
2023/05/09 04:17:53;;;;;;;1.40;1.40;;;;;;;;;;5069770;28;20433;-68
2023/05/09 04:20:19;;;;;;;16.53;1.60;;;;;;;;;;5063853;28;20794;-69
2023/05/09 04:22:45;;;;;;;1.33;1.33;;;;;;;;;;5061410;28;20466;-68
2023/05/09 04:25:11;;;;;;;6.27;1.40;;;;;;;;;;5068488;28;20425;-67
2023/05/09 04:27:37;;;;;;;1.70;1.60;;;;;;;;;;5069495;28;21381;-68
2023/05/09 04:30:03;;;;;;;4.40;2.07;;;;;;;;;;5068971;28;20430;-68
2023/05/09 04:32:29;;;;;;;2.90;2.20;;;;;;;;;;5067889;28;20434;-71
2023/05/09 04:34:55;;;;;;;2.00;2.00;;;;;;;;;;5068312;28;20841;-73
2023/05/09 04:37:21;;;;;;;1.93;1.93;;;;;;;;;;5067364;28;20814;-71
2023/05/09 04:39:47;;;;;;;1.60;1.60;;;;;;;;;;5069510;28;20809;-70
2023/05/09 04:42:13;;;;;;;5.50;1.97;;;;;;;;;;5067103;28;20433;-70
2023/05/09 04:44:39;;;;;;;2.30;2.17;;;;;;;;;;5069225;28;20417;-72
2023/05/09 04:47:05;;;;;;;1.97;1.87;;;;;;;;;;5067413;28;20480;-71
2023/05/09 04:49:31;;;;;;;2.20;2.17;;;;;;;;;;5069469;28;20435;-69
2023/05/09 04:51:57;;;;;;;4.97;2.27;;;;;;;;;;5065502;28;20459;-69
2023/05/09 04:54:23;;;;;;;2.27;2.27;;;;;;;;;;5068997;28;20488;-68
2023/05/09 04:56:49;;;;;;;1.97;1.97;;;;;;;;;;5067958;28;20553;-68
2023/05/09 04:59:15;;;;;;;2.30;2.20;;;;;;;;;;5068470;28;20520;-67
2023/05/09 05:01:41;;;;;;;4.53;2.20;;;;;;;;;;5068522;28;20548;-68
2023/05/09 05:04:07;;;;;;;2.87;2.60;;;;;;;;;;5065547;28;20449;-65
2023/05/09 05:06:33;;;;;;;7.60;2.00;;;;;;;;;;5061588;28;20446;-66
2023/05/09 05:08:59;;;;;;;3.27;2.20;;;;;;;;;;5063030;28;20514;-69
2023/05/09 05:11:25;;;;;;;1.80;1.80;;;;;;;;;;5068124;28;20512;-67
2023/05/09 05:13:51;;;;;;;2.53;1.53;;;;;;;;;;5067439;28;20513;-66
2023/05/09 05:16:17;;;;;;;2.00;2.00;;;;;;;;;;5065389;28;20432;-67
2023/05/09 05:18:43;;;;;;;1.90;1.60;;;;;;;;;;5066487;28;20437;-66
2023/05/09 05:21:09;;;;;;;1.77;1.77;;;;;;;;;;5066690;28;20441;-67
2023/05/09 05:23:35;;;;;;;1.63;1.63;;;;;;;;;;5067233;28;20456;-70
2023/05/09 05:26:01;;;;;;;1.53;1.53;;;;;;;;;;5068849;28;20425;-66
2023/05/09 05:28:27;;;;;;;2.93;1.30;;;;;;;;;;5067668;28;20455;-66
2023/05/09 05:30:53;;;;;;;3.67;2.10;;;;;;;;;;5069485;28;20456;-66
2023/05/09 05:33:19;;;;;;;2.00;1.90;;;;;;;;;;5068910;28;20855;-67
2023/05/09 05:35:45;;;;;;;1.70;1.70;;;;;;;;;;5065689;28;21018;-67
2023/05/09 05:38:11;;;;;;;1.40;1.40;;;;;;;;;;5068317;28;20425;-67
2023/05/09 05:40:37;;;;;;;0.97;0.97;;;;;;;;;;5071868;28;20783;-66
2023/05/09 05:43:03;;;;;;;1.40;1.40;;;;;;;;;;5067137;28;20503;-68
2023/05/09 05:45:29;;;;;;;3.80;1.77;;;;;;;;;;5064664;28;20534;-68
2023/05/09 05:47:55;;;;;;;1.57;1.50;;;;;;;;;;5070983;28;20425;-68
2023/05/09 05:50:21;;;;;;;1.17;1.17;;;;;;;;;;5071228;28;20508;-68
2023/05/09 05:52:47;;;;;;;1.47;1.47;;;;;;;;;;5046047;28;20524;-68
2023/05/09 05:55:13;;;;;;;1.60;1.60;;;;;;;;;;5033784;28;20494;-66
2023/05/09 05:57:39;;;;;;;2.20;1.00;;;;;;;;;;5067434;28;20457;-67
2023/05/09 06:00:10;;;;;;;1.40;1.40;;;;;;;;;;5050438;28;20445;-67
2023/05/09 06:02:36;;;;;;;1.90;1.80;;;;;;;;;;5067428;28;20491;-69
2023/05/09 06:05:03;;;;;;;2.20;1.20;;;;;;;;;;5070369;28;20965;-68
2023/05/09 06:07:29;;;;;;;1.40;1.40;;;;;;;;;;5050869;28;20437;-68
2023/05/09 06:09:55;;;;;;;1.40;1.40;;;;;;;;;;5070535;28;20486;-70
2023/05/09 06:12:21;;;;;;;4.80;1.67;;;;;;;;;;5069332;28;20425;-70
2023/05/09 06:14:47;;;;;;;4.40;1.40;;;;;;;;;;5070466;28;20477;-71
2023/05/09 06:17:13;;;;;;;2.30;2.30;;;;;;;;;;5069724;28;20513;-70
2023/05/09 06:19:38;;;;;;;1.33;1.33;;;;;;;;;;5068556;28;20433;-67
2023/05/09 06:22:04;;;;;;;1.90;1.40;;;;;;;;;;5066054;28;20445;-70
2023/05/09 06:24:30;;;;;;;1.50;1.50;;;;;;;;;;5065619;28;20446;-69
2023/05/09 06:26:56;;;;;;;1.23;1.23;;;;;;;;;;5062023;28;20516;-69
2023/05/09 06:29:22;;;;;;;1.33;1.30;;;;;;;;;;5060960;28;20930;-67
2023/05/09 06:31:48;;;;;;;6.10;2.67;;;;;;;;;;5065363;28;20849;-69
2023/05/09 06:34:14;;;;;;;1.60;1.60;;;;;;;;;;5069057;28;20914;-66
2023/05/09 06:36:40;;;;;;;1.50;1.50;;;;;;;;;;5061752;28;20446;-67
2023/05/09 06:39:06;;;;;;;2.30;1.60;;;;;;;;;;5069485;28;21035;-67
2023/05/09 06:41:32;;;;;;;1.33;1.33;;;;;;;;;;5070088;28;20437;-67
2023/05/09 06:43:58;;;;;;;2.50;1.30;;;;;;;;;;5070519;28;20421;-66
2023/05/09 06:46:25;;;;;;;1.30;1.30;;;;;;;;;;5070243;28;20994;-67
2023/05/09 06:48:51;;;;;;;1.77;1.60;;;;;;;;;;5070307;28;20421;-71
2023/05/09 06:51:17;;;;;;;1.90;1.80;;;;;;;;;;5069317;28;20441;-71
2023/05/09 06:53:43;;;;;;;7.03;2.00;;;;;;;;;;5069409;28;20436;-67
2023/05/09 06:56:09;;;;;;;1.40;1.40;;;;;;;;;;5070592;28;20441;-67
2023/05/09 06:58:35;;;;;;;2.10;2.07;;;;;;;;;;5070363;28;20428;-65
2023/05/09 07:01:01;;;;;;;1.70;1.60;;;;;;;;;;5069517;28;20445;-66
2023/05/09 07:03:27;;;;;;;1.70;1.60;;;;;;;;;;5068706;28;20921;-69
2023/05/09 07:05:55;;;;;;;1.60;1.60;;;;;;;;;;5069991;28;20508;-66
2023/05/09 07:08:21;;;;;;;1.70;1.70;;;;;;;;;;5069292;28;20436;-68
2023/05/09 07:10:47;;;;;;;1.97;1.97;;;;;;;;;;5069235;28;20429;-71
2023/05/09 07:13:13;;;;;;;2.10;2.10;;;;;;;;;;5069713;28;21026;-69
2023/05/09 07:15:39;;;;;;;2.03;1.93;;;;;;;;;;5069341;28;20481;-66
2023/05/09 07:18:05;;;;;;;5.73;2.60;;;;;;;;;;5070347;28;20846;-66
2023/05/09 07:20:31;;;;;;;1.90;1.80;;;;;;;;;;5070086;28;20421;-66
2023/05/09 07:22:57;;;;;;;1.37;1.37;;;;;;;;;;5067866;28;20425;-70
2023/05/09 07:25:23;;;;;;;4.27;2.37;;;;;;;;;;5067488;28;20456;-66
2023/05/09 07:27:49;;;;;;;3.23;1.87;;;;;;;;;;5069915;28;20456;-66
2023/05/09 07:30:15;;;;;;;2.27;2.17;;;;;;;;;;5069000;28;20482;-67
2023/05/09 07:32:41;;;;;;;2.70;1.80;;;;;;;;;;5068538;28;20520;-66
2023/05/09 07:35:07;;;;;;;1.30;1.30;;;;;;;;;;5068049;28;20481;-66
2023/05/09 07:37:33;;;;;;;2.47;2.27;;;;;;;;;;5069861;28;20496;-66
2023/05/09 07:40:00;;;;;;;6.10;3.13;;;;;;;;;;5069633;28;20445;-66
2023/05/09 07:42:26;;;;;;;4.03;3.80;;;;;;;;;;5068887;28;20425;-66
2023/05/09 07:44:52;;;;;;;8.93;4.27;;;;;;;;;;5069000;28;20482;-65
2023/05/09 07:47:18;;;;;;;2.47;2.40;;;;;;;;;;5069470;28;20421;-66
2023/05/09 07:49:45;;;;;;;2.70;2.50;;;;;;;;;;5069369;28;20416;-67
2023/05/09 07:52:11;;;;;;;2.10;2.10;;;;;;;;;;5067828;28;20452;-67
2023/05/09 07:54:37;;;;;;;2.40;2.40;;;;;;;;;;5066145;28;20558;-65
2023/05/09 07:57:03;;;;;;;4.33;2.30;;;;;;;;;;5068746;28;20905;-66
2023/05/09 07:59:29;;;;;;;2.47;2.47;;;;;;;;;;5068009;28;20950;-66
2023/05/09 08:01:55;;;;;;;7.57;2.20;;;;;;;;;;5067960;28;20575;-66
2023/05/09 08:04:21;;;;;;;2.33;2.23;;;;;;;;;;5069355;28;20524;-69
2023/05/09 08:06:47;;;;;;;5.40;2.50;;;;;;;;;;5069192;28;20417;-66
2023/05/09 08:09:13;;;;;;;3.50;3.20;;;;;;;;;;5069262;28;20445;-66
2023/05/09 08:11:39;;;;;;;3.20;2.97;;;;;;;;;;5068575;28;20417;-67
2023/05/09 08:14:05;;;;;;;2.73;2.73;;;;;;;;;;5067004;28;21004;-67
2023/05/09 08:16:31;;;;;;;6.00;3.00;;;;;;;;;;5069153;28;20421;-66
2023/05/09 08:18:57;;;;;;;3.83;3.47;;;;;;;;;;5067583;28;20934;-67
2023/05/09 08:21:23;;;;;;;3.30;3.10;;;;;;;;;;5068597;28;20429;-66
2023/05/09 08:23:49;;;;;;;2.60;2.50;;;;;;;;;;5068617;28;20516;-66
2023/05/09 08:26:15;;;;;;;7.80;3.00;;;;;;;;;;5069343;28;20442;-66
2023/05/09 08:28:41;;;;;;;4.53;3.30;;;;;;;;;;5067590;28;20486;-66
2023/05/09 08:31:07;;;;;;;4.70;2.77;;;;;;;;;;5067278;28;20444;-66
2023/05/09 08:33:33;;;;;;;2.83;2.73;;;;;;;;;;5067659;28;20457;-66
2023/05/09 08:35:59;;;;;;;3.60;3.37;;;;;;;;;;5069131;28;21338;-66
2023/05/09 08:38:25;;;;;;;8.20;4.20;;;;;;;;;;5069441;28;20775;-66
2023/05/09 08:40:51;;;;;;;3.30;3.00;;;;;;;;;;5068187;28;20428;-66
2023/05/09 08:43:18;;;;;;;5.47;3.90;;;;;;;;;;5068625;28;20413;-66
2023/05/09 08:46:13;;;;;;;3.30;3.20;;;;;;;;;;5068911;28;20485;-66
2023/05/09 08:48:39;;;;;;;3.13;3.13;;;;;;;;;;5064552;28;20856;-66
2023/05/09 08:51:05;;;;;;;3.50;3.40;;;;;;;;;;5069541;28;20418;-67
2023/05/09 08:53:32;;;;;;;3.57;3.37;;;;;;;;;;5069094;28;20417;-66
2023/05/09 08:55:59;;;;;;;4.20;3.90;;;;;;;;;;5069035;28;20488;-66
2023/05/09 08:58:25;;;;;;;5.00;4.73;;;;;;;;;;5069342;28;20425;-67
2023/05/09 09:00:51;;;;;;;4.27;3.87;;;;;;;;;;5068010;28;20452;-67
2023/05/09 09:03:17;;;;;;;4.30;4.00;;;;;;;;;;5071326;28;20516;-67
2023/05/09 09:05:44;;;;;;;4.20;3.80;;;;;;;;;;5072573;28;21126;-67
2023/05/09 09:08:11;;;;;;;4.13;3.60;;;;;;;;;;5073029;28;20425;-67
2023/05/09 09:10:40;;;;;;;3.97;3.87;;;;;;;;;;5073235;28;20440;-66
2023/05/09 09:13:07;;;;;;;3.80;3.60;;;;;;;;;;5065278;28;20451;-67
2023/05/09 09:15:37;;;;;;;3.90;3.60;;;;;;;;;;5070528;28;20477;-66
2023/05/09 09:18:06;;;;;;;3.10;2.87;;;;;;;;;;5071140;28;20948;-66
2023/05/09 09:20:33;;;;;;;3.10;2.90;;;;;;;;;;5071386;28;20425;-66
2023/05/09 09:23:00;;;;;;;3.10;3.00;;;;;;;;;;5071849;28;20486;-67
2023/05/09 09:25:26;;;;;;;2.63;2.43;;;;;;;;;;5071780;28;20436;-66
2023/05/09 09:27:52;;;;;;;2.83;2.73;;;;;;;;;;5070710;28;20488;-66
2023/05/09 09:30:18;;;;;;;3.60;3.30;;;;;;;;;;5070959;28;20484;-66
2023/05/09 09:32:44;;;;;;;3.50;3.40;;;;;;;;;;5071271;28;20457;-66
2023/05/09 09:35:11;;;;;;;3.40;3.30;;;;;;;;;;5070928;28;20487;-67
2023/05/09 09:37:39;;;;;;;4.30;3.50;;;;;;;;;;5070244;28;20429;-66
2023/05/09 09:40:10;;;;;;;4.03;3.83;;;;;;;;;;5069689;28;20441;-66
2023/05/09 09:42:46;;;;;;;3.93;3.63;;;;;;;;;;5071725;28;20451;-66
2023/05/09 09:45:13;;;;;;;4.07;3.87;;;;;;;;;;5071081;28;20980;-66
2023/05/09 09:47:40;;;;;;;3.20;3.10;;;;;;;;;;5071839;28;20421;-66
2023/05/09 09:50:13;;;;;;;3.50;3.30;;;;;;;;;;5071652;28;20421;-66
2023/05/09 09:52:49;;;;;;;4.30;4.10;;;;;;;;;;5071489;28;20764;-67
2023/05/09 09:55:15;;;;;;;3.10;3.10;;;;;;;;;;5069984;28;20575;-65
2023/05/09 09:57:44;;;;;;;3.17;3.07;;;;;;;;;;5070443;28;20429;-65
2023/05/09 10:00:11;;;;;;;2.70;2.70;;;;;;;;;;5070837;28;20464;-67
2023/05/09 10:03:00;;;;;;;3.10;3.00;;;;;;;;;;5070187;28;20430;-66
2023/05/09 10:05:28;;;;;;;2.23;2.23;;;;;;;;;;5064761;28;20562;-67
2023/05/09 10:07:58;;;;;;;3.93;3.37;;;;;;;;;;5070234;28;20428;-68
2023/05/09 10:10:28;;;;;;;2.63;2.63;;;;;;;;;;5069375;28;20429;-66
2023/05/09 10:12:57;;;;;;;2.53;2.47;;;;;;;;;;5067927;28;20463;-66
2023/05/09 10:15:23;;;;;;;3.00;2.97;;;;;;;;;;5068411;28;20492;-66
2023/05/09 10:18:07;;;;;;;2.70;2.70;;;;;;;;;;5070117;28;20421;-66
2023/05/09 10:20:33;;;;;;;2.13;2.13;;;;;;;;;;5059874;28;20495;-66
2023/05/09 10:23:03;;;;;;;3.17;2.30;;;;;;;;;;5068367;28;20433;-66
2023/05/09 10:25:30;;;;;;;3.50;3.30;;;;;;;;;;5060958;28;20929;-66
2023/05/09 10:27:57;;;;;;;2.77;2.77;;;;;;;;;;5065075;28;20964;-66
2023/05/09 10:30:27;;;;;;;2.53;2.43;;;;;;;;;;5068208;28;20925;-67
2023/05/09 10:32:57;;;;;;;10.07;6.03;;;;;;;;;;5069428;28;20437;-66
2023/05/09 10:35:29;;;;;;;2.97;2.87;;;;;;;;;;5067493;28;20483;-67
2023/05/09 10:37:56;;;;;;;4.50;4.30;;;;;;;;;;5067037;28;20448;-66
2023/05/09 10:40:22;;;;;;;3.13;3.03;;;;;;;;;;5067656;28;20433;-66
2023/05/09 10:42:48;;;;;;;2.90;2.67;;;;;;;;;;5069405;28;20763;-66
2023/05/09 10:45:14;;;;;;;2.70;2.47;;;;;;;;;;5069932;28;20454;-66
2023/05/09 10:47:41;;;;;;;2.23;2.13;;;;;;;;;;5069763;28;20452;-67
2023/05/09 10:50:08;;;;;;;1.87;1.87;;;;;;;;;;5071326;28;20826;-67
2023/05/09 10:52:34;;;;;;;2.37;2.27;;;;;;;;;;5065744;28;20449;-66
2023/05/09 10:55:01;;;;;;;1.90;1.90;;;;;;;;;;5067773;28;20469;-67
2023/05/09 10:57:31;;;;;;;2.87;2.67;;;;;;;;;;5068852;28;20998;-67
2023/05/09 10:59:57;;;;;;;3.13;1.90;;;;;;;;;;5069815;28;20418;-66
2023/05/09 11:02:31;;;;;;;3.00;2.80;;;;;;;;;;5069939;28;20438;-67
2023/05/09 11:05:16;;;;;;;2.40;2.40;;;;;;;;;;5070129;28;20405;-67
2023/05/09 11:07:42;;;;;;;1.80;1.80;;;;;;;;;;5070255;28;20425;-66
2023/05/09 11:10:15;;;;;;;1.40;1.40;;;;;;;;;;5070264;28;20810;-66
2023/05/09 11:12:57;;;;;;;4.40;2.00;;;;;;;;;;5069426;28;20529;-66
2023/05/09 11:15:23;;;;;;;3.13;1.80;;;;;;;;;;5069335;28;20554;-67
2023/05/09 11:18:06;;;;;;;1.00;1.00;;;;;;;;;;5069789;28;20413;-59
2023/05/09 11:20:35;;;;;;;1.10;1.10;;;;;;;;;;5069418;28;20471;-59
2023/05/09 11:23:03;;;;;;;1.98;1.00;;;;;;;;;;5069620;28;20501;-66
2023/05/09 11:25:29;;;;;;;6.63;1.20;;;;;;;;;;5068316;28;20183;-66
2023/05/09 11:28:00;;;;;;;1.40;1.30;;;;;;;;;;5068516;28;20445;-66
2023/05/09 11:30:35;;;;;;;1.40;1.37;;;;;;;;;;5068850;28;20833;-66
2023/05/09 11:33:01;;;;;;;1.70;1.03;;;;;;;;;;5069001;28;20987;-66
2023/05/09 11:35:28;;;;;;;3.27;0.93;;;;;;;;;;5069607;28;20477;-66
2023/05/09 11:38:01;;;;;;;3.80;1.00;;;;;;;;;;5069963;28;20955;-66
2023/05/09 11:40:28;;;;;;;0.90;0.90;;;;;;;;;;5070248;28;20459;-67
2023/05/09 11:42:55;;;;;;;2.43;0.83;;;;;;;;;;5068928;28;20426;-66
2023/05/09 11:45:22;;;;;;;0.80;0.80;;;;;;;;;;5069858;28;20461;-66
2023/05/09 11:47:49;;;;;;;1.00;0.90;;;;;;;;;;5070029;28;20417;-66
2023/05/09 11:50:16;;;;;;;1.07;1.07;;;;;;;;;;5070159;28;20929;-66
2023/05/09 11:52:42;;;;;;;1.03;1.03;;;;;;;;;;5069608;28;20479;-66
2023/05/09 11:55:12;;;;;;;0.70;0.70;;;;;;;;;;5069887;28;20489;-66
2023/05/09 11:57:39;;;;;;;1.10;1.00;;;;;;;;;;5068964;28;20468;-67
2023/05/09 12:00:08;;;;;;;0.80;0.80;;;;;;;;;;5068560;28;20437;-66
2023/05/09 12:02:34;;;;;;;1.60;0.90;;;;;;;;;;5069563;28;20547;-67
2023/05/09 12:05:09;;;;;;;0.70;0.70;;;;;;;;;;5069904;28;20514;-67
2023/05/09 12:07:38;;;;;;;1.00;1.00;;;;;;;;;;5069287;28;20428;-67
2023/05/09 12:10:12;;;;;;;0.70;0.70;;;;;;;;;;5069504;28;20425;-66
2023/05/09 12:12:47;;;;;;;0.97;0.97;;;;;;;;;;5069410;28;20460;-67
2023/05/09 12:15:14;;;;;;;0.90;0.90;;;;;;;;;;5068222;28;20472;-67
2023/05/09 12:17:40;;;;;;;1.27;1.27;;;;;;;;;;5068945;28;20490;-67
2023/05/09 12:20:07;;;;;;;1.00;1.00;;;;;;;;;;5069744;28;20496;-66
2023/05/09 12:22:34;;;;;;;1.13;1.10;;;;;;;;;;5069455;28;20570;-67
2023/05/09 12:25:01;;;;;;;1.60;1.23;;;;;;;;;;5069482;28;20423;-67
2023/05/09 12:27:27;;;;;;;1.63;1.10;;;;;;;;;;5068664;28;20422;-70
2023/05/09 12:29:53;;;;;;;1.47;1.13;;;;;;;;;;5067878;28;20426;-67
2023/05/09 12:32:19;;;;;;;1.43;1.30;;;;;;;;;;5069264;28;20408;-67
2023/05/09 12:34:47;;;;;;;4.70;1.03;;;;;;;;;;5069091;28;20520;-67
2023/05/09 12:37:15;;;;;;;5.60;1.57;;;;;;;;;;5072416;28;20777;-66
2023/05/09 12:39:40;;;;;;;1.50;1.50;;;;;;;;;;5073360;28;20433;-67
2023/05/09 12:42:11;;;;;;;1.53;1.27;;;;;;;;;;5072043;28;20512;-67
2023/05/09 12:44:38;;;;;;;1.10;1.10;;;;;;;;;;5073249;28;20791;-67
2023/05/09 12:47:04;;;;;;;0.80;0.80;;;;;;;;;;5071749;28;20471;-67
2023/05/09 12:49:31;;;;;;;1.00;1.00;;;;;;;;;;5072726;28;20456;-67
2023/05/09 12:51:59;;;;;;;1.60;1.50;;;;;;;;;;5071569;28;20444;-67
2023/05/09 12:54:26;;;;;;;2.07;1.07;;;;;;;;;;5072684;28;20468;-67
2023/05/09 12:56:55;;;;;;;1.23;1.23;;;;;;;;;;5073034;28;20444;-67
2023/05/09 12:59:25;;;;;;;1.23;1.10;;;;;;;;;;5071855;28;20909;-70
2023/05/09 13:01:56;;;;;;;1.07;1.07;;;;;;;;;;5072816;28;20516;-67
2023/05/09 13:04:22;;;;;;;1.17;1.17;;;;;;;;;;5073232;28;20414;-67
2023/05/09 13:06:56;;;;;;;2.17;1.00;;;;;;;;;;5072617;28;20833;-67
2023/05/09 13:09:23;;;;;;;0.87;0.87;;;;;;;;;;5073122;28;20508;-67
2023/05/09 13:11:49;;;;;;;1.10;1.10;;;;;;;;;;5072879;28;20421;-67
2023/05/09 13:14:16;;;;;;;1.27;1.20;;;;;;;;;;5072327;28;20472;-67
2023/05/09 13:16:42;;;;;;;1.10;1.10;;;;;;;;;;5071490;28;21161;-67
2023/05/09 13:19:08;;;;;;;0.80;0.80;;;;;;;;;;5072768;28;20478;-67
2023/05/09 13:21:35;;;;;;;0.80;0.80;;;;;;;;;;5071225;28;20429;-67
2023/05/09 13:24:01;;;;;;;1.30;1.13;;;;;;;;;;5072073;28;20437;-67
2023/05/09 13:26:27;;;;;;;1.90;0.97;;;;;;;;;;5072529;28;20441;-67
2023/05/09 13:28:53;;;;;;;0.80;0.80;;;;;;;;;;5072470;28;20409;-67
2023/05/09 13:31:19;;;;;;;2.90;0.80;;;;;;;;;;5070523;28;20421;-67
2023/05/09 13:33:45;;;;;;;1.00;0.93;;;;;;;;;;5071287;28;20426;-67
2023/05/09 13:36:11;;;;;;;0.93;0.93;;;;;;;;;;5071350;28;20546;-67
2023/05/09 13:38:39;;;;;;;1.00;1.00;;;;;;;;;;5072370;28;20420;-67
2023/05/09 13:41:05;;;;;;;1.13;1.13;;;;;;;;;;5071868;28;20431;-67
2023/05/09 13:43:31;;;;;;;0.87;0.87;;;;;;;;;;5069669;28;21022;-67
2023/05/09 13:45:57;;;;;;;1.37;0.83;;;;;;;;;;5065284;28;20481;-67
2023/05/09 13:48:23;;;;;;;0.77;0.77;;;;;;;;;;5070457;28;20425;-67
2023/05/09 13:50:50;;;;;;;1.70;0.90;;;;;;;;;;5071340;28;20926;-67
2023/05/09 13:53:16;;;;;;;1.17;1.17;;;;;;;;;;5070766;28;22179;-67
2023/05/09 13:55:42;;;;;;;1.00;1.00;;;;;;;;;;5070739;28;20592;-67
2023/05/09 13:58:08;;;;;;;0.60;0.60;;;;;;;;;;5070262;28;20988;-67
2023/05/09 14:00:34;;;;;;;1.10;1.10;;;;;;;;;;5071520;28;20571;-67
2023/05/09 14:03:01;;;;;;;1.43;1.00;;;;;;;;;;5071346;28;20462;-66
2023/05/09 14:05:27;;;;;;;0.87;0.87;;;;;;;;;;5071488;28;20425;-67
2023/05/09 14:07:54;;;;;;;0.87;0.87;;;;;;;;;;5070856;28;20454;-67
2023/05/09 14:10:20;;;;;;;1.00;1.00;;;;;;;;;;5071786;28;20512;-67
2023/05/09 14:12:46;;;;;;;1.20;1.03;;;;;;;;;;5070658;28;20440;-66
2023/05/09 14:15:12;;;;;;;1.03;1.03;;;;;;;;;;5071291;28;20485;-67
2023/05/09 14:17:39;;;;;;;0.90;0.90;;;;;;;;;;5065654;28;20808;-67
2023/05/09 14:20:05;;;;;;;1.57;1.00;;;;;;;;;;5064212;28;20827;-67
2023/05/09 14:22:31;;;;;;;1.10;1.10;;;;;;;;;;5069086;28;20575;-67
2023/05/09 14:24:58;;;;;;;5.10;1.60;;;;;;;;;;5069388;28;20437;-67
2023/05/09 14:27:25;;;;;;;1.47;1.47;;;;;;;;;;5063827;28;20962;-67
2023/05/09 14:29:51;;;;;;;1.17;1.17;;;;;;;;;;5033540;28;20442;-67
2023/05/09 14:32:17;;;;;;;1.30;1.20;;;;;;;;;;5045764;28;20526;-67
2023/05/09 14:34:43;;;;;;;1.40;1.40;;;;;;;;;;5062006;28;20478;-68
2023/05/09 14:37:12;;;;;;;1.40;1.40;;;;;;;;;;5050292;28;20472;-68
2023/05/09 14:39:41;;;;;;;3.90;1.80;;;;;;;;;;5071361;28;20509;-68
2023/05/09 14:42:09;;;;;;;2.23;2.23;;;;;;;;;;5067436;28;20482;-66